Time;durP1;ratioP1;P1;durP2;ratioP2;P2;SDS_P1;SDS_P2;PMS_P1;PMS_P2;Temp;Humidity;BMP_temperature;BMP_pressure;BME280_temperature;BME280_humidity;BME280_pressure;Samples;Min_cycle;Max_cycle;Signal;HPM_P1;HPM_P2
2023/10/06 00:00:46;;;;;;;2.33;1.52;;;13.10;99.90;;;;;;7395987;19;20150;-87
2023/10/06 00:03:14;;;;;;;1.88;1.15;;;13.10;99.90;;;;;;7395443;19;20214;-87
2023/10/06 00:05:49;;;;;;;2.08;1.30;;;12.90;99.90;;;;;;7394319;19;20174;-86
2023/10/06 00:08:17;;;;;;;1.45;1.08;;;12.60;99.90;;;;;;7396456;19;20138;-86
2023/10/06 00:10:50;;;;;;;2.00;0.93;;;12.60;99.90;;;;;;7395708;19;20138;-87
2023/10/06 00:13:24;;;;;;;1.77;1.08;;;12.40;99.90;;;;;;7396168;19;20219;-87
2023/10/06 00:15:51;;;;;;;1.42;1.05;;;12.70;99.90;;;;;;7394409;19;20158;-87
2023/10/06 00:18:26;;;;;;;2.70;1.40;;;12.60;99.90;;;;;;7391086;19;20147;-85
2023/10/06 00:20:57;;;;;;;1.40;1.20;;;12.40;99.90;;;;;;7393936;19;20134;-85
2023/10/06 00:23:26;;;;;;;2.10;1.45;;;12.30;99.90;;;;;;7394849;19;20154;-86
2023/10/06 00:25:57;;;;;;;1.88;1.25;;;12.50;99.90;;;;;;7395693;19;20622;-85
2023/10/06 00:28:27;;;;;;;2.42;1.23;;;12.40;99.90;;;;;;7394772;19;20156;-86
2023/10/06 00:30:57;;;;;;;1.85;1.30;;;12.40;99.90;;;;;;7394540;19;20146;-86
2023/10/06 00:33:27;;;;;;;1.95;1.45;;;12.50;99.90;;;;;;7395975;19;20214;-86
2023/10/06 00:35:53;;;;;;;4.75;1.30;;;12.50;99.90;;;;;;7395063;19;20822;-86
2023/10/06 00:38:19;;;;;;;1.90;1.40;;;12.60;99.90;;;;;;7393132;19;20150;-86
2023/10/06 00:40:56;;;;;;;1.77;1.40;;;12.90;99.90;;;;;;7393157;19;20801;-85
2023/10/06 00:43:36;;;;;;;2.63;1.10;;;12.90;99.90;;;;;;7394175;19;20186;-87
2023/10/06 00:46:07;;;;;;;4.80;1.50;;;13.10;99.90;;;;;;7395494;19;20137;-86
2023/10/06 00:49:04;;;;;;;2.10;1.30;;;12.80;99.90;;;;;;7395163;19;20157;-86
2023/10/06 00:51:30;;;;;;;3.17;1.38;;;12.50;99.90;;;;;;7395356;19;20188;-86
2023/10/06 00:53:57;;;;;;;3.05;1.63;;;12.30;99.90;;;;;;7395422;19;20242;-86
2023/10/06 00:56:25;;;;;;;2.92;1.60;;;12.30;99.90;;;;;;7394294;19;20506;-85
2023/10/06 00:58:51;;;;;;;1.63;1.15;;;12.60;99.90;;;;;;7393259;19;20154;-87
2023/10/06 01:01:17;;;;;;;3.50;1.60;;;12.40;99.90;;;;;;7393524;19;20488;-85
2023/10/06 01:03:48;;;;;;;1.40;1.25;;;12.30;99.90;;;;;;7394885;19;20146;-86
2023/10/06 01:06:15;;;;;;;2.42;1.30;;;12.10;99.90;;;;;;7392108;19;20147;-86
2023/10/06 01:09:05;;;;;;;2.70;1.40;;;11.90;99.90;;;;;;7394715;19;20146;-85
2023/10/06 01:11:43;;;;;;;1.58;1.05;;;12.10;99.90;;;;;;7394937;19;20141;-86
2023/10/06 01:14:09;;;;;;;2.58;1.33;;;12.10;99.90;;;;;;7390377;19;20161;-86
2023/10/06 01:16:35;;;;;;;1.33;1.15;;;12.10;99.90;;;;;;7392802;19;20553;-86
2023/10/06 01:21:53;;;;;;;2.25;1.30;;;12.40;99.90;;;;;;7393254;19;20563;-87
2023/10/06 01:24:28;;;;;;;2.47;1.42;;;12.50;99.90;;;;;;7394133;19;20603;-87
2023/10/06 01:27:05;;;;;;;2.42;1.38;;;12.20;99.90;;;;;;7393173;19;20229;-85
2023/10/06 01:29:32;;;;;;;3.00;1.40;;;12.20;99.90;;;;;;7392979;19;20146;-86
2023/10/06 01:32:03;;;;;;;1.55;1.30;;;12.40;99.90;;;;;;7395448;19;20134;-86
2023/10/06 01:34:34;;;;;;;1.90;1.02;;;12.60;99.90;;;;;;7391825;19;20138;-85
2023/10/06 01:37:03;;;;;;;2.17;1.30;;;12.60;99.90;;;;;;7393461;19;20178;-86
2023/10/06 01:39:32;;;;;;;2.55;1.25;;;12.40;99.90;;;;;;7392276;19;20143;-85
2023/10/06 01:42:04;;;;;;;1.60;1.10;;;12.00;99.90;;;;;;7391766;19;20155;-85
2023/10/06 01:44:30;;;;;;;4.72;1.50;;;11.90;99.90;;;;;;7393023;19;20156;-86
2023/10/06 01:46:57;;;;;;;2.38;1.15;;;11.80;99.90;;;;;;7392624;19;20142;-86
2023/10/06 01:49:23;;;;;;;2.05;1.55;;;12.10;99.90;;;;;;7390502;19;20142;-85
2023/10/06 01:51:53;;;;;;;1.70;1.35;;;11.90;99.90;;;;;;7394355;19;20134;-86
2023/10/06 01:54:25;;;;;;;2.10;1.33;;;11.70;99.90;;;;;;7392629;19;20642;-85
2023/10/06 01:56:53;;;;;;;0.63;0.63;;;11.80;99.90;;;;;;7390715;19;20127;-85
2023/10/06 01:59:20;;;;;;;1.73;0.98;;;11.80;99.90;;;;;;7392349;19;20151;-86
2023/10/06 02:01:46;;;;;;;1.40;1.10;;;11.90;99.90;;;;;;7392750;19;20156;-86
2023/10/06 02:04:14;;;;;;;1.17;1.02;;;12.30;99.90;;;;;;7391302;19;20149;-85
2023/10/06 02:06:45;;;;;;;2.15;1.25;;;11.80;99.90;;;;;;7388157;19;20600;-86
2023/10/06 02:09:20;;;;;;;2.08;1.45;;;12.10;99.90;;;;;;7393641;19;20207;-86
2023/10/06 02:11:50;;;;;;;2.58;1.55;;;11.90;99.90;;;;;;7390980;19;20164;-83
2023/10/06 02:14:17;;;;;;;1.77;1.20;;;11.90;99.90;;;;;;7391165;19;20134;-86
2023/10/06 02:16:46;;;;;;;1.67;0.90;;;12.00;99.90;;;;;;7393288;19;20162;-87
2023/10/06 02:19:18;;;;;;;2.30;1.30;;;12.00;99.90;;;;;;7392260;19;20162;-85
2023/10/06 02:21:51;;;;;;;1.65;1.00;;;12.00;99.90;;;;;;7392057;19;20146;-85
2023/10/06 02:24:17;;;;;;;1.50;1.20;;;12.20;99.90;;;;;;7392817;19;20138;-85
2023/10/06 02:26:47;;;;;;;2.42;1.25;;;12.40;99.90;;;;;;7397082;19;20165;-86
2023/10/06 02:29:22;;;;;;;1.35;0.98;;;12.30;99.90;;;;;;7400598;19;20131;-86
2023/10/06 02:31:49;;;;;;;1.88;1.25;;;12.10;99.90;;;;;;7399195;19;20150;-86
2023/10/06 02:34:29;;;;;;;2.30;1.25;;;12.30;99.90;;;;;;7397445;19;20273;-86
2023/10/06 02:37:00;;;;;;;1.92;1.40;;;12.20;99.90;;;;;;7397955;19;20146;-86
2023/10/06 02:39:28;;;;;;;1.77;1.27;;;12.00;99.90;;;;;;7397551;19;20138;-86
2023/10/06 02:41:57;;;;;;;2.33;1.52;;;12.40;99.90;;;;;;7398298;19;20491;-87
2023/10/06 02:44:29;;;;;;;1.63;1.30;;;12.50;99.90;;;;;;7397046;19;20131;-86
2023/10/06 02:46:56;;;;;;;1.70;1.23;;;12.30;99.90;;;;;;7398614;19;20584;-85
2023/10/06 02:49:36;;;;;;;2.30;0.98;;;11.90;99.90;;;;;;7397561;19;20165;-87
2023/10/06 02:52:13;;;;;;;1.90;1.70;;;11.60;99.90;;;;;;7399217;19;20184;-86
2023/10/06 02:54:45;;;;;;;3.67;1.83;;;11.50;99.90;;;;;;7398266;19;20138;-85
2023/10/06 02:57:11;;;;;;;1.50;1.00;;;11.80;99.90;;;;;;7395740;19;20643;-84
2023/10/06 02:59:36;;;;;;;1.60;1.00;;;12.20;99.90;;;;;;7396754;19;20131;-84
2023/10/06 03:02:06;;;;;;;1.40;1.30;;;11.80;99.90;;;;;;7396376;19;20154;-84
2023/10/06 03:04:36;;;;;;;2.85;1.40;;;12.10;99.90;;;;;;7397565;19;20591;-83
2023/10/06 03:07:05;;;;;;;3.03;1.85;;;12.10;99.90;;;;;;7396486;19;20131;-84
2023/10/06 03:09:44;;;;;;;2.40;1.60;;;12.40;99.90;;;;;;7394023;19;20150;-83
2023/10/06 03:12:26;;;;;;;1.67;1.33;;;12.60;99.90;;;;;;7398034;19;20134;-84
2023/10/06 03:14:58;;;;;;;1.90;1.20;;;12.40;99.90;;;;;;7396710;19;20152;-84
2023/10/06 03:17:24;;;;;;;1.92;1.63;;;12.40;99.90;;;;;;7395583;19;20255;-84
2023/10/06 03:20:11;;;;;;;1.90;1.45;;;12.00;99.90;;;;;;7397569;19;20651;-83
2023/10/06 03:22:41;;;;;;;2.53;1.65;;;11.80;99.90;;;;;;7397209;19;20152;-83
2023/10/06 03:25:14;;;;;;;2.47;1.48;;;12.10;99.90;;;;;;7396600;19;20159;-84
2023/10/06 03:27:40;;;;;;;2.13;1.30;;;12.20;99.90;;;;;;7397986;19;20147;-84
2023/10/06 03:30:11;;;;;;;1.70;1.55;;;11.90;99.90;;;;;;7394979;19;20150;-83
2023/10/06 03:32:39;;;;;;;3.33;1.38;;;11.50;99.90;;;;;;7398232;19;20126;-83
2023/10/06 03:35:16;;;;;;;2.33;1.33;;;11.40;99.90;;;;;;7395095;19;20468;-83
2023/10/06 03:37:52;;;;;;;2.58;1.60;;;11.60;99.90;;;;;;7392295;19;20197;-83
2023/10/06 03:40:22;;;;;;;2.15;1.25;;;11.90;99.90;;;;;;7396228;19;20152;-84
2023/10/06 03:42:48;;;;;;;1.40;1.10;;;11.60;99.90;;;;;;7397388;19;20131;-83
2023/10/06 03:45:31;;;;;;;2.53;1.15;;;11.50;99.90;;;;;;7393855;19;20127;-84
2023/10/06 03:48:11;;;;;;;2.03;1.40;;;11.70;99.90;;;;;;7394253;19;20148;-82
2023/10/06 03:50:46;;;;;;;0.95;0.90;;;11.60;99.90;;;;;;7395901;19;20155;-84
2023/10/06 03:53:14;;;;;;;2.25;1.25;;;11.90;99.90;;;;;;7394574;19;20517;-84
2023/10/06 03:55:42;;;;;;;3.05;1.52;;;11.50;99.90;;;;;;7396399;19;20154;-84
2023/10/06 03:58:10;;;;;;;1.67;1.27;;;11.30;99.90;;;;;;7394173;19;20146;-84
2023/10/06 04:00:47;;;;;;;2.47;1.42;;;11.40;99.90;;;;;;7393867;19;20638;-83
2023/10/06 04:03:13;;;;;;;2.72;1.52;;;11.30;99.90;;;;;;7395402;19;20130;-83
2023/10/06 04:05:44;;;;;;;1.95;1.20;;;11.00;99.90;;;;;;7391492;19;20599;-84
2023/10/06 04:08:16;;;;;;;1.77;1.15;;;11.10;99.90;;;;;;7393390;19;20694;-82
2023/10/06 04:10:44;;;;;;;1.63;1.20;;;11.20;99.90;;;;;;7395117;19;20143;-84
2023/10/06 04:13:10;;;;;;;2.42;1.35;;;11.40;99.90;;;;;;7393912;19;20159;-83
2023/10/06 04:15:38;;;;;;;1.63;1.27;;;11.60;99.90;;;;;;7394762;19;20693;-84
2023/10/06 04:18:10;;;;;;;2.42;1.63;;;11.40;99.90;;;;;;7391671;19;20495;-84
2023/10/06 04:20:41;;;;;;;1.95;1.38;;;11.30;99.90;;;;;;7393306;19;20814;-83
2023/10/06 04:23:07;;;;;;;2.25;1.15;;;11.30;99.90;;;;;;7395249;19;20166;-84
2023/10/06 04:25:39;;;;;;;1.37;1.27;;;11.50;99.90;;;;;;7393102;19;20165;-83
2023/10/06 04:28:19;;;;;;;1.70;1.60;;;11.40;99.90;;;;;;7395668;19;20143;-84
2023/10/06 04:30:46;;;;;;;2.53;1.43;;;11.70;99.90;;;;;;7394994;19;20153;-84
2023/10/06 04:33:14;;;;;;;3.40;1.83;;;11.60;99.90;;;;;;7395280;19;20149;-83
2023/10/06 04:35:59;;;;;;;2.40;1.80;;;11.30;99.90;;;;;;7393776;19;20139;-82
2023/10/06 04:38:29;;;;;;;3.75;1.38;;;11.00;99.90;;;;;;7391755;19;20139;-84
2023/10/06 04:40:58;;;;;;;2.55;1.65;;;11.10;99.90;;;;;;7393063;19;20135;-83
2023/10/06 04:43:24;;;;;;;2.38;1.63;;;11.40;99.90;;;;;;7395191;19;20153;-84
2023/10/06 04:45:50;;;;;;;2.00;1.10;;;11.50;99.90;;;;;;7392211;19;20160;-84
2023/10/06 04:48:18;;;;;;;3.00;1.03;;;11.60;99.90;;;;;;7393578;19;20154;-84
2023/10/06 04:50:45;;;;;;;3.17;1.85;;;11.90;99.90;;;;;;7394296;19;20556;-84
2023/10/06 04:53:12;;;;;;;2.72;2.05;;;11.80;99.90;;;;;;7393346;19;20145;-84
2023/10/06 04:55:39;;;;;;;1.73;1.08;;;11.50;99.90;;;;;;7393501;19;20622;-84
2023/10/06 04:58:07;;;;;;;2.00;1.45;;;11.30;99.90;;;;;;7391671;19;20638;-84
2023/10/06 05:00:33;;;;;;;2.70;1.58;;;11.20;99.90;;;;;;7392777;19;20135;-85
2023/10/06 05:03:03;;;;;;;1.48;1.38;;;11.10;99.90;;;;;;7395055;19;20133;-85
2023/10/06 05:05:33;;;;;;;3.17;1.45;;;11.40;99.90;;;;;;7392222;19;20150;-85
2023/10/06 05:08:00;;;;;;;1.77;1.60;;;11.50;99.90;;;;;;7392711;19;20162;-84
2023/10/06 05:10:26;;;;;;;3.10;1.67;;;11.30;99.90;;;;;;7392698;19;20514;-87
2023/10/06 05:12:55;;;;;;;2.60;1.85;;;11.30;99.90;;;;;;7393078;19;20716;-85
2023/10/06 05:15:23;;;;;;;2.63;1.55;;;11.20;99.90;;;;;;7393340;19;20146;-85
2023/10/06 05:17:55;;;;;;;3.10;1.70;;;10.80;99.90;;;;;;7389971;19;20139;-85
2023/10/06 05:20:31;;;;;;;1.80;1.27;;;10.70;99.90;;;;;;7391933;19;20174;-84
2023/10/06 05:23:09;;;;;;;1.52;1.25;;;10.80;99.90;;;;;;7393790;19;20162;-83
2023/10/06 05:25:42;;;;;;;2.35;1.90;;;11.10;99.90;;;;;;7393001;19;20158;-84
2023/10/06 05:28:10;;;;;;;2.75;2.10;;;11.10;99.90;;;;;;7392999;19;20181;-87
2023/10/06 05:30:37;;;;;;;1.38;1.27;;;11.40;99.90;;;;;;7391369;19;20150;-83
2023/10/06 05:33:04;;;;;;;2.70;1.83;;;11.80;99.90;;;;;;7398120;19;20191;-87
2023/10/06 05:35:40;;;;;;;2.05;1.38;;;12.00;99.90;;;;;;7393831;19;20153;-88
2023/10/06 05:38:13;;;;;;;2.43;2.03;;;12.00;99.90;;;;;;7390424;19;20590;-85
2023/10/06 05:40:49;;;;;;;2.67;1.98;;;11.70;99.90;;;;;;7392820;19;20162;-88
2023/10/06 05:43:19;;;;;;;2.15;1.60;;;11.80;99.90;;;;;;7389888;19;20130;-87
2023/10/06 05:45:51;;;;;;;2.30;1.85;;;11.90;99.90;;;;;;7393604;19;20161;-90
2023/10/06 05:48:30;;;;;;;2.63;1.60;;;12.00;99.90;;;;;;7394928;19;20135;-87
2023/10/06 05:51:05;;;;;;;1.70;1.30;;;12.20;99.90;;;;;;7393860;19;20126;-87
2023/10/06 05:53:38;;;;;;;2.63;1.52;;;12.10;99.90;;;;;;7392689;19;20448;-87
2023/10/06 05:56:07;;;;;;;1.88;1.52;;;12.00;99.90;;;;;;7391164;19;20142;-87
2023/10/06 05:58:40;;;;;;;3.65;1.80;;;12.30;99.90;;;;;;7386807;19;20150;-86
2023/10/06 06:01:06;;;;;;;2.67;2.28;;;12.30;99.90;;;;;;7389940;19;20523;-88
2023/10/06 06:03:32;;;;;;;3.90;1.80;;;12.40;99.90;;;;;;7393790;19;20237;-86
2023/10/06 06:06:08;;;;;;;2.42;1.52;;;12.40;99.90;;;;;;7389909;19;20238;-86
2023/10/06 06:08:34;;;;;;;3.23;2.00;;;12.50;99.90;;;;;;7391931;19;20158;-87
2023/10/06 06:11:01;;;;;;;2.43;1.87;;;12.50;99.90;;;;;;7391348;19;20129;-84
2023/10/06 06:13:27;;;;;;;3.33;1.80;;;12.60;99.90;;;;;;7391790;19;20132;-83
2023/10/06 06:15:54;;;;;;;2.87;1.97;;;12.50;99.90;;;;;;7391299;19;20157;-88
2023/10/06 06:18:20;;;;;;;2.67;1.92;;;12.10;99.90;;;;;;7389264;19;20150;-86
2023/10/06 06:20:46;;;;;;;2.33;1.80;;;12.10;99.90;;;;;;7390799;19;20510;-87
2023/10/06 06:23:15;;;;;;;1.90;1.70;;;11.90;99.90;;;;;;7389066;19;20138;-86
2023/10/06 06:25:42;;;;;;;4.18;2.40;;;12.00;99.90;;;;;;7385789;19;20127;-85
2023/10/06 06:28:08;;;;;;;1.83;1.50;;;12.20;99.90;;;;;;7390755;19;20135;-85
2023/10/06 06:30:37;;;;;;;1.83;1.07;;;12.20;99.90;;;;;;7389084;19;20157;-85
2023/10/06 06:33:08;;;;;;;4.88;1.92;;;12.20;99.90;;;;;;7391859;19;20154;-86
2023/10/06 06:35:35;;;;;;;1.50;1.40;;;12.30;99.90;;;;;;7389176;19;20218;-85
2023/10/06 06:38:04;;;;;;;3.28;1.98;;;12.40;99.90;;;;;;7387821;19;20119;-85
2023/10/06 06:40:37;;;;;;;1.70;1.30;;;12.40;99.90;;;;;;7391261;19;20604;-86
2023/10/06 06:43:09;;;;;;;2.35;1.48;;;12.30;99.90;;;;;;7391114;19;20169;-86
2023/10/06 06:45:39;;;;;;;1.67;1.38;;;12.40;99.90;;;;;;7389406;19;20190;-86
2023/10/06 06:48:12;;;;;;;1.90;1.52;;;12.40;99.90;;;;;;7390999;19;20173;-85
2023/10/06 06:50:42;;;;;;;2.83;1.77;;;12.00;99.90;;;;;;7390576;19;20142;-87
2023/10/06 06:53:09;;;;;;;1.70;1.42;;;11.40;99.90;;;;;;7391019;19;20146;-86
2023/10/06 06:55:35;;;;;;;2.80;2.08;;;11.30;99.90;;;;;;7389948;19;20152;-86
2023/10/06 06:58:06;;;;;;;1.57;1.20;;;11.60;99.90;;;;;;7389571;19;20158;-86
2023/10/06 07:00:35;;;;;;;2.33;1.88;;;11.70;99.90;;;;;;7390954;19;20505;-86
2023/10/06 07:03:01;;;;;;;3.30;2.13;;;11.70;99.90;;;;;;7390668;19;20244;-87
2023/10/06 07:05:28;;;;;;;2.42;1.70;;;11.50;99.90;;;;;;7387334;19;20153;-87
2023/10/06 07:07:54;;;;;;;1.63;1.40;;;11.50;99.90;;;;;;7389291;19;20184;-83
2023/10/06 07:10:22;;;;;;;2.58;1.42;;;11.50;99.90;;;;;;7388839;19;20150;-85
2023/10/06 07:12:52;;;;;;;2.90;2.28;;;11.30;99.90;;;;;;7394850;19;20259;-87
2023/10/06 07:15:21;;;;;;;1.88;1.65;;;11.40;99.90;;;;;;7395906;19;20161;-85
2023/10/06 07:17:51;;;;;;;3.67;1.40;;;11.30;99.90;;;;;;7393710;19;20154;-84
2023/10/06 07:20:26;;;;;;;3.28;1.38;;;11.50;99.90;;;;;;7396709;19;20663;-88
2023/10/06 07:22:57;;;;;;;2.03;1.60;;;11.80;99.90;;;;;;7396346;19;20146;-88
2023/10/06 07:25:24;;;;;;;2.70;1.77;;;12.00;99.90;;;;;;7396358;19;20135;-86
2023/10/06 07:27:53;;;;;;;1.98;1.52;;;11.50;99.90;;;;;;7396000;19;20139;-87
2023/10/06 07:30:22;;;;;;;2.85;2.00;;;11.80;99.90;;;;;;7395784;19;20151;-85
2023/10/06 07:32:52;;;;;;;2.47;1.60;;;11.80;99.90;;;;;;7397002;19;20611;-85
2023/10/06 07:35:30;;;;;;;3.63;1.70;;;12.10;99.90;;;;;;7397457;19;20143;-87
2023/10/06 07:37:57;;;;;;;2.43;1.40;;;12.40;99.90;;;;;;7395339;19;20158;-85
2023/10/06 07:40:27;;;;;;;2.57;2.00;;;12.70;99.90;;;;;;7396992;19;20150;-85
2023/10/06 07:42:56;;;;;;;2.03;1.50;;;12.80;99.90;;;;;;7400960;19;20154;-87
2023/10/06 07:45:23;;;;;;;1.77;1.47;;;12.80;99.90;;;;;;7396224;19;20558;-85
2023/10/06 07:47:51;;;;;;;2.30;1.50;;;12.80;99.90;;;;;;7398183;19;20162;-85
2023/10/06 07:50:20;;;;;;;1.93;1.13;;;12.90;99.90;;;;;;7397223;19;20162;-86
2023/10/06 07:52:47;;;;;;;3.20;1.50;;;13.00;99.90;;;;;;7396500;19;20149;-84
2023/10/06 07:55:13;;;;;;;1.70;1.60;;;13.00;99.90;;;;;;7396162;19;20151;-84
2023/10/06 07:57:45;;;;;;;2.72;1.77;;;13.10;99.90;;;;;;7395268;19;20514;-85
2023/10/06 08:00:27;;;;;;;1.93;1.67;;;13.10;99.90;;;;;;7399850;19;20162;-86
2023/10/06 08:02:59;;;;;;;2.23;1.70;;;13.10;99.90;;;;;;7412044;19;20138;-85
2023/10/06 08:05:25;;;;;;;1.33;1.10;;;13.20;99.90;;;;;;7405492;19;20202;-87
2023/10/06 08:07:52;;;;;;;2.27;1.73;;;13.20;99.90;;;;;;7408047;19;20135;-88
2023/10/06 08:10:19;;;;;;;2.27;1.47;;;13.20;99.90;;;;;;7404869;19;20160;-88
2023/10/06 08:12:49;;;;;;;3.07;1.53;;;13.40;99.90;;;;;;7404750;19;20154;-89
2023/10/06 08:15:21;;;;;;;1.48;1.23;;;13.30;99.90;;;;;;7405696;19;20154;-88
2023/10/06 08:17:56;;;;;;;2.50;1.30;;;13.30;99.90;;;;;;7397672;19;20155;-87
2023/10/06 08:20:27;;;;;;;1.48;1.30;;;13.30;99.90;;;;;;7401405;19;20580;-86
2023/10/06 08:22:53;;;;;;;2.00;1.67;;;13.40;99.90;;;;;;7393937;19;20655;-84
2023/10/06 08:25:20;;;;;;;4.95;1.38;;;13.50;99.90;;;;;;7395368;19;20151;-84
2023/10/06 08:27:48;;;;;;;1.20;1.10;;;13.60;99.90;;;;;;7395024;19;20130;-84
2023/10/06 08:30:21;;;;;;;1.42;1.17;;;13.70;99.90;;;;;;7394131;19;20134;-88
2023/10/06 08:32:48;;;;;;;1.67;1.55;;;13.60;99.90;;;;;;7395460;19;20142;-86
2023/10/06 08:35:14;;;;;;;1.75;1.48;;;13.80;99.90;;;;;;7395856;19;20153;-88
2023/10/06 08:37:45;;;;;;;1.73;1.48;;;13.70;99.90;;;;;;7396447;19;20157;-84
2023/10/06 08:40:16;;;;;;;1.75;1.25;;;13.60;99.90;;;;;;7392413;19;20149;-86
2023/10/06 08:42:53;;;;;;;2.13;1.60;;;13.70;99.90;;;;;;7395956;19;20623;-84
2023/10/06 08:45:20;;;;;;;4.43;1.35;;;13.80;99.90;;;;;;7395860;19;20138;-85
2023/10/06 08:47:58;;;;;;;3.83;1.77;;;13.90;99.90;;;;;;7394716;19;20527;-86
2023/10/06 08:50:29;;;;;;;2.80;1.60;;;14.10;99.90;;;;;;7392588;19;20142;-84
2023/10/06 08:52:56;;;;;;;1.73;1.30;;;14.10;99.90;;;;;;7394170;19;20126;-86
2023/10/06 08:55:24;;;;;;;2.20;1.63;;;14.20;99.90;;;;;;7392508;19;20629;-84
2023/10/06 08:57:52;;;;;;;1.90;1.42;;;14.20;99.90;;;;;;7393771;19;20594;-85
2023/10/06 09:00:23;;;;;;;1.67;1.25;;;14.30;99.90;;;;;;7393195;19;20154;-84
2023/10/06 09:02:54;;;;;;;2.50;1.60;;;14.30;99.90;;;;;;7391249;19;20153;-84
2023/10/06 09:05:21;;;;;;;3.25;1.48;;;14.40;99.90;;;;;;7392255;19;20174;-83
2023/10/06 09:07:58;;;;;;;2.35;1.73;;;14.50;99.90;;;;;;7391509;19;20155;-82
2023/10/06 09:10:26;;;;;;;2.47;1.60;;;14.70;99.90;;;;;;7392024;19;20142;-84
2023/10/06 09:13:07;;;;;;;1.65;1.55;;;14.90;99.90;;;;;;7390682;19;20178;-83
2023/10/06 09:15:37;;;;;;;2.58;1.80;;;15.10;99.90;;;;;;7391104;19;20158;-84
2023/10/06 09:18:18;;;;;;;2.00;1.63;;;15.30;99.90;;;;;;7389736;19;20638;-84
2023/10/06 09:20:45;;;;;;;2.67;1.77;;;15.50;99.90;;;;;;7390465;19;20254;-84
2023/10/06 09:23:14;;;;;;;4.03;2.42;;;15.70;99.90;;;;;;7394486;19;20467;-84
2023/10/06 09:25:45;;;;;;;2.20;1.88;;;15.80;99.90;;;;;;7392384;19;20681;-85
2023/10/06 09:28:16;;;;;;;3.80;1.88;;;15.80;99.90;;;;;;7393241;19;20168;-84
2023/10/06 09:31:01;;;;;;;2.00;1.73;;;15.80;99.90;;;;;;7393034;19;20575;-84
2023/10/06 09:33:29;;;;;;;2.00;1.75;;;15.90;99.90;;;;;;7397985;19;20145;-84
2023/10/06 09:36:08;;;;;;;3.83;2.28;;;16.00;99.90;;;;;;7388800;19;20135;-83
2023/10/06 09:38:41;;;;;;;3.28;2.15;;;16.00;99.90;;;;;;7388119;19;20139;-83
2023/10/06 09:41:09;;;;;;;3.00;2.15;;;16.10;99.90;;;;;;7390566;19;20604;-82
2023/10/06 09:43:39;;;;;;;5.85;2.50;;;16.10;99.90;;;;;;7391660;19;20146;-83
2023/10/06 09:46:07;;;;;;;4.43;2.53;;;16.20;99.90;;;;;;7387212;19;20198;-82
2023/10/06 09:48:36;;;;;;;4.80;3.00;;;16.30;99.90;;;;;;7388999;19;20142;-83
2023/10/06 09:51:08;;;;;;;2.30;1.88;;;16.40;99.90;;;;;;7388139;19;20836;-80
2023/10/06 09:53:38;;;;;;;2.97;1.85;;;16.60;99.90;;;;;;7389728;19;20150;-83
2023/10/06 09:56:11;;;;;;;4.72;2.33;;;16.60;99.90;;;;;;7388457;19;20135;-83
2023/10/06 09:58:51;;;;;;;3.88;2.28;;;16.70;99.90;;;;;;7386852;19;20178;-83
2023/10/06 10:01:24;;;;;;;2.67;1.48;;;16.60;99.90;;;;;;7391287;19;20193;-84
2023/10/06 10:03:57;;;;;;;1.85;1.52;;;16.70;99.90;;;;;;7392802;19;20897;-83
2023/10/06 10:06:23;;;;;;;4.18;2.97;;;16.70;99.90;;;;;;7386148;19;20611;-85
2023/10/06 10:08:51;;;;;;;2.78;2.30;;;16.80;99.90;;;;;;7389014;19;20150;-84
2023/10/06 10:11:29;;;;;;;3.45;2.40;;;16.90;99.90;;;;;;7389556;19;20135;-85
2023/10/06 10:14:18;;;;;;;3.10;1.85;;;17.00;99.90;;;;;;7391941;19;20205;-83
2023/10/06 10:16:53;;;;;;;3.83;1.95;;;17.00;99.90;;;;;;7388829;19;20264;-83
2023/10/06 10:19:22;;;;;;;1.77;1.50;;;17.00;99.90;;;;;;7389724;19;20149;-82
2023/10/06 10:21:48;;;;;;;2.47;1.63;;;17.00;99.90;;;;;;7389035;19;20150;-83
2023/10/06 10:24:21;;;;;;;2.83;2.10;;;17.00;99.90;;;;;;7388579;19;20141;-82
2023/10/06 10:26:50;;;;;;;4.72;1.70;;;17.10;99.90;;;;;;7387084;19;20146;-83
2023/10/06 10:29:19;;;;;;;1.85;1.65;;;17.30;99.90;;;;;;7394594;19;20642;-84
2023/10/06 10:31:51;;;;;;;2.08;1.73;;;17.40;99.90;;;;;;7388410;19;20163;-83
2023/10/06 10:34:21;;;;;;;1.80;1.65;;;17.40;99.90;;;;;;7389376;19;20716;-85
2023/10/06 10:37:05;;;;;;;1.90;1.33;;;17.50;99.90;;;;;;7388938;19;20139;-79
2023/10/06 10:39:51;;;;;;;2.00;1.42;;;17.60;99.90;;;;;;7388242;19;20186;-81
2023/10/06 10:42:36;;;;;;;1.98;1.65;;;17.70;99.90;;;;;;7391125;19;20580;-81
2023/10/06 10:45:34;;;;;;;1.75;1.40;;;17.60;99.90;;;;;;7392541;19;20139;-83
2023/10/06 10:48:13;;;;;;;3.35;1.60;;;17.80;99.90;;;;;;7392446;19;20145;-83
2023/10/06 10:50:55;;;;;;;3.05;1.65;;;18.00;99.90;;;;;;7397476;19;20212;-81
2023/10/06 10:53:21;;;;;;;4.75;1.92;;;18.10;99.90;;;;;;7399135;19;20616;-81
2023/10/06 10:55:48;;;;;;;2.38;1.60;;;18.20;99.90;;;;;;7401807;19;20134;-82
2023/10/06 10:58:43;;;;;;;3.78;3.13;;;18.20;99.90;;;;;;7403553;19;20150;-81
2023/10/06 11:01:24;;;;;;;3.70;1.73;;;18.30;99.90;;;;;;7401145;19;20127;-81
2023/10/06 11:06:58;;;;;;;2.95;1.63;;;18.40;99.90;;;;;;7388561;19;20336;-80
2023/10/06 11:09:39;;;;;;;2.33;1.73;;;18.50;99.90;;;;;;7389809;19;20138;-81
2023/10/06 11:12:19;;;;;;;2.35;1.70;;;18.50;99.90;;;;;;7398294;19;20149;-80
2023/10/06 11:14:51;;;;;;;2.53;1.65;;;18.60;99.90;;;;;;7396043;19;20143;-82
2023/10/06 11:17:26;;;;;;;2.40;1.38;;;18.60;99.90;;;;;;7399543;19;20206;-81
2023/10/06 11:20:13;;;;;;;3.20;1.90;;;18.70;99.90;;;;;;7394454;19;20526;-83
2023/10/06 11:22:56;;;;;;;3.67;2.20;;;18.70;99.90;;;;;;7393666;19;20144;-85
2023/10/06 11:25:29;;;;;;;1.98;1.48;;;18.80;99.90;;;;;;7398441;19;20158;-87
2023/10/06 11:27:56;;;;;;;2.08;1.35;;;18.90;99.90;;;;;;7401612;19;20154;-87
2023/10/06 11:30:23;;;;;;;2.38;1.73;;;19.00;99.90;;;;;;7403156;19;20143;-84
2023/10/06 11:32:51;;;;;;;3.10;2.05;;;19.00;99.90;;;;;;7395712;19;20135;-84
2023/10/06 11:35:17;;;;;;;3.38;2.20;;;19.00;99.90;;;;;;7396819;19;20454;-86
2023/10/06 11:37:43;;;;;;;1.55;1.35;;;19.00;99.90;;;;;;7394577;19;20139;-84
2023/10/06 11:40:12;;;;;;;2.65;1.77;;;19.00;99.90;;;;;;7397440;19;20131;-85
2023/10/06 11:42:41;;;;;;;2.50;1.50;;;19.10;99.90;;;;;;7394993;19;20242;-86
2023/10/06 11:45:30;;;;;;;2.20;1.40;;;19.10;99.90;;;;;;7395536;19;20615;-85
2023/10/06 11:47:57;;;;;;;2.03;1.25;;;19.10;99.90;;;;;;7396450;19;20142;-85
2023/10/06 11:50:26;;;;;;;2.35;1.40;;;19.20;99.90;;;;;;7396903;19;20134;-84
2023/10/06 11:52:52;;;;;;;5.03;2.05;;;19.20;99.90;;;;;;7393805;19;20269;-85
2023/10/06 11:55:33;;;;;;;2.35;1.85;;;19.20;99.90;;;;;;7395957;19;20146;-85
2023/10/06 11:58:00;;;;;;;3.78;1.90;;;19.20;99.90;;;;;;7390612;19;20131;-85
2023/10/06 12:00:39;;;;;;;2.08;1.20;;;19.30;99.90;;;;;;7398598;19;20446;-85
2023/10/06 12:03:06;;;;;;;2.05;1.48;;;19.30;99.90;;;;;;7394707;19;20470;-84
2023/10/06 12:05:33;;;;;;;2.75;1.23;;;19.30;99.90;;;;;;7392233;19;20185;-85
2023/10/06 12:08:08;;;;;;;2.13;1.23;;;19.40;99.90;;;;;;7393759;19;20139;-86
2023/10/06 12:10:45;;;;;;;2.30;1.67;;;19.50;99.90;;;;;;7394575;19;20139;-86
2023/10/06 12:13:11;;;;;;;2.97;1.70;;;19.50;99.90;;;;;;7395474;19;20142;-85
2023/10/06 12:15:37;;;;;;;3.50;1.85;;;19.50;99.90;;;;;;7403860;19;20175;-85
2023/10/06 12:18:04;;;;;;;3.15;1.65;;;19.60;99.90;;;;;;7390486;19;20138;-86
2023/10/06 12:20:30;;;;;;;2.75;1.80;;;19.60;99.90;;;;;;7393356;19;20202;-84
2023/10/06 12:22:56;;;;;;;1.55;1.38;;;19.60;99.90;;;;;;7394183;19;20163;-86
2023/10/06 12:25:25;;;;;;;5.68;1.65;;;19.80;99.90;;;;;;7395165;19;20206;-86
2023/10/06 12:27:51;;;;;;;2.40;1.38;;;19.90;99.90;;;;;;7394908;19;20134;-85
2023/10/06 12:30:18;;;;;;;2.17;1.25;;;20.00;99.90;;;;;;7399539;19;20249;-86
2023/10/06 12:32:47;;;;;;;1.48;1.17;;;19.90;99.90;;;;;;7399067;19;20150;-85
2023/10/06 12:35:18;;;;;;;3.50;1.67;;;20.00;99.90;;;;;;7396729;19;20184;-87
2023/10/06 12:37:45;;;;;;;2.95;1.42;;;20.10;99.90;;;;;;7392134;19;20157;-83
2023/10/06 12:40:13;;;;;;;3.15;1.67;;;20.20;99.90;;;;;;7395065;19;20154;-86
2023/10/06 12:42:42;;;;;;;4.55;1.63;;;20.20;99.90;;;;;;7392533;19;20178;-88
2023/10/06 12:45:13;;;;;;;4.82;2.17;;;20.40;99.90;;;;;;7395188;19;20488;-84
2023/10/06 12:47:40;;;;;;;1.80;1.40;;;20.50;99.90;;;;;;7394102;19;20147;-86
2023/10/06 12:50:08;;;;;;;4.20;2.60;;;20.40;99.90;;;;;;7398510;19;20135;-87
2023/10/06 12:52:36;;;;;;;3.13;2.33;;;20.30;99.90;;;;;;7394402;19;20537;-82
2023/10/06 12:55:10;;;;;;;2.15;1.40;;;20.40;99.90;;;;;;7391661;19;20139;-84
2023/10/06 12:57:42;;;;;;;4.72;2.28;;;20.40;99.90;;;;;;7391806;19;20139;-87
2023/10/06 13:00:09;;;;;;;3.25;1.42;;;20.40;99.90;;;;;;7390782;19;20150;-81
2023/10/06 13:02:38;;;;;;;2.72;1.58;;;20.40;99.90;;;;;;7388779;19;20147;-85
2023/10/06 13:05:08;;;;;;;1.83;1.15;;;20.30;99.90;;;;;;7389929;19;20803;-85
2023/10/06 13:07:37;;;;;;;2.33;1.40;;;20.20;99.90;;;;;;7389133;19;20146;-83
2023/10/06 13:10:08;;;;;;;1.85;1.30;;;20.10;99.90;;;;;;7387032;19;20126;-85
2023/10/06 13:12:39;;;;;;;2.75;1.23;;;20.00;99.90;;;;;;7389312;19;20159;-86